Time;durP1;ratioP1;P1;durP2;ratioP2;P2;SDS_P1;SDS_P2;PMS_P1;PMS_P2;Temp;Humidity;BMP_temperature;BMP_pressure;BME280_temperature;BME280_humidity;BME280_pressure;Samples;Min_cycle;Max_cycle;Signal;HPM_P1;HPM_P2
2023/07/17 00:00:01;;;;;;;6.50;2.72;;;;;;;11.93;100.00;100363.59;5112088;28;20035;-92
2023/07/17 00:02:26;;;;;;;8.45;3.13;;;;;;;11.87;100.00;100369.16;5110877;28;20027;-92
2023/07/17 00:04:52;;;;;;;11.13;2.80;;;;;;;11.85;100.00;100377.91;5110743;28;20031;-92
2023/07/17 00:07:17;;;;;;;33.97;6.85;;;;;;;12.01;100.00;100375.22;5110989;28;20476;-92
2023/07/17 00:09:43;;;;;;;8.82;2.90;;;;;;;11.92;100.00;100364.50;5112223;28;20063;-92
2023/07/17 00:12:09;;;;;;;11.98;3.08;;;;;;;11.88;100.00;100360.47;5110792;28;20127;-92
2023/07/17 00:14:34;;;;;;;11.73;3.10;;;;;;;11.93;100.00;100363.59;5112243;28;20110;-92
2023/07/17 00:17:00;;;;;;;9.63;3.00;;;;;;;12.01;100.00;100357.09;5110859;28;20111;-92
2023/07/17 00:19:25;;;;;;;9.80;2.78;;;;;;;11.92;100.00;100368.84;5112332;28;20024;-91
2023/07/17 00:21:51;;;;;;;11.30;4.03;;;;;;;12.00;100.00;100364.03;5112183;28;20069;-92
2023/07/17 00:24:17;;;;;;;7.82;3.25;;;;;;;12.04;100.00;100367.25;5110764;28;20031;-91
2023/07/17 00:26:42;;;;;;;13.63;3.20;;;;;;;11.98;100.00;100373.66;5115148;28;20070;-92
2023/07/17 00:29:25;;;;;;;8.18;3.08;;;;;;;12.18;100.00;100377.53;5116265;28;20031;-92
2023/07/17 00:31:52;;;;;;;10.38;3.15;;;;;;;11.96;100.00;100378.09;5116015;28;20024;-92
2023/07/17 00:34:18;;;;;;;5.22;2.75;;;;;;;11.99;100.00;100375.28;5115679;28;20032;-91
2023/07/17 00:36:44;;;;;;;8.07;2.42;;;;;;;11.89;100.00;100384.56;5114576;28;20031;-92
2023/07/17 00:39:10;;;;;;;6.18;3.03;;;;;;;11.92;100.00;100374.03;5115747;28;20024;-91
2023/07/17 00:41:35;;;;;;;7.47;2.55;;;;;;;11.79;100.00;100389.47;5114425;28;20046;-92
2023/07/17 00:44:01;;;;;;;6.07;3.20;;;;;;;11.74;100.00;100378.59;5115459;28;20031;-91
2023/07/17 00:46:26;;;;;;;6.65;2.65;;;;;;;11.72;100.00;100380.44;5114362;28;20036;-91
2023/07/17 00:48:52;;;;;;;7.22;2.42;;;;;;;11.77;100.00;100386.16;5115568;28;20469;-92
2023/07/17 00:51:18;;;;;;;7.22;2.67;;;;;;;11.73;100.00;100395.03;5115711;28;20433;-92
2023/07/17 00:53:44;;;;;;;8.80;3.15;;;;;;;11.74;100.00;100392.34;5115398;28;20024;-92
2023/07/17 00:56:10;;;;;;;5.50;3.03;;;;;;;11.69;100.00;100391.81;5115316;28;20024;-92
2023/07/17 00:58:36;;;;;;;9.55;2.85;;;;;;;11.64;100.00;100382.69;5114229;28;20032;-92
2023/07/17 01:01:03;;;;;;;8.50;3.03;;;;;;;11.57;100.00;100383.06;5115388;28;20038;-93
2023/07/17 01:03:29;;;;;;;8.57;3.10;;;;;;;11.59;100.00;100388.16;5113920;28;20484;-92
2023/07/17 01:05:56;;;;;;;7.57;3.17;;;;;;;11.57;100.00;100387.41;5115304;28;20051;-92
2023/07/17 01:08:22;;;;;;;8.73;3.72;;;;;;;11.63;100.00;100381.00;5115413;28;20024;-92
2023/07/17 01:10:49;;;;;;;10.60;2.97;;;;;;;11.62;100.00;100394.88;5115207;28;20027;-92
2023/07/17 01:13:16;;;;;;;9.35;2.67;;;;;;;11.52;100.00;100392.84;5115246;28;20023;-92
2023/07/17 01:15:42;;;;;;;9.43;3.20;;;;;;;11.47;100.00;100392.31;5115057;28;20024;-92
2023/07/17 01:18:07;;;;;;;6.32;2.63;;;;;;;11.39;100.00;100394.56;5115129;28;20396;-92
2023/07/17 01:20:33;;;;;;;11.85;2.95;;;;;;;11.60;100.00;100397.53;5114969;28;20382;-92
2023/07/17 01:23:00;;;;;;;7.13;3.10;;;;;;;11.51;100.00;100391.22;5114863;28;20020;-91
2023/07/17 01:25:26;;;;;;;10.88;3.50;;;;;;;11.49;100.00;100398.22;5114872;28;20027;-91
2023/07/17 01:27:51;;;;;;;7.30;2.97;;;;;;;11.39;100.00;100391.97;5114706;28;20058;-92
2023/07/17 01:30:17;;;;;;;8.48;3.60;;;;;;;11.40;100.00;100403.97;5114711;28;20051;-92
2023/07/17 01:32:42;;;;;;;6.80;2.90;;;;;;;11.32;100.00;100403.59;5114607;28;20377;-92
2023/07/17 01:35:08;;;;;;;8.35;3.10;;;;;;;11.29;100.00;100407.22;5114957;28;20031;-93
2023/07/17 01:37:33;;;;;;;4.47;2.53;;;;;;;11.26;100.00;100404.78;5113370;28;20031;-92
2023/07/17 01:39:59;;;;;;;8.82;3.05;;;;;;;11.42;100.00;100409.88;5113422;28;20027;-92
2023/07/17 01:42:24;;;;;;;7.32;3.17;;;;;;;11.31;100.00;100407.09;5114944;28;20027;-91
2023/07/17 01:44:50;;;;;;;8.77;3.20;;;;;;;11.27;100.00;100401.31;5114274;28;20027;-92
2023/07/17 01:47:15;;;;;;;7.07;3.15;;;;;;;11.25;100.00;100407.47;5113102;28;20114;-92
2023/07/17 01:49:41;;;;;;;10.13;3.45;;;;;;;11.22;100.00;100402.50;5114422;28;20034;-91
2023/07/17 01:52:08;;;;;;;6.30;2.80;;;;;;;11.21;100.00;100400.84;5114467;28;20066;-92
2023/07/17 01:54:34;;;;;;;8.68;2.90;;;;;;;11.10;100.00;100407.47;5114415;28;20080;-92
2023/07/17 01:57:00;;;;;;;5.88;2.53;;;;;;;11.11;100.00;100410.88;5114415;28;20424;-92
2023/07/17 01:59:25;;;;;;;6.30;3.00;;;;;;;11.08;100.00;100406.75;5114343;28;20545;-92
2023/07/17 02:01:50;;;;;;;7.13;2.60;;;;;;;11.03;100.00;100413.13;5113982;28;20036;-92
2023/07/17 02:04:16;;;;;;;10.60;3.30;;;;;;;11.04;100.00;100407.00;5114444;28;20028;-92
2023/07/17 02:06:41;;;;;;;8.70;3.45;;;;;;;11.03;100.00;100398.44;5114328;28;20485;-92
2023/07/17 02:09:07;;;;;;;6.90;2.88;;;;;;;11.02;100.00;100406.28;5114197;28;20031;-92
2023/07/17 02:11:32;;;;;;;9.05;3.58;;;;;;;11.06;100.00;100403.41;5114158;28;20359;-91
2023/07/17 02:13:58;;;;;;;7.40;2.63;;;;;;;11.02;100.00;100407.13;5114200;28;20031;-91
2023/07/17 02:16:23;;;;;;;6.75;2.35;;;;;;;10.91;100.00;100400.00;5114119;28;20031;-92
2023/07/17 02:18:49;;;;;;;6.25;2.47;;;;;;;10.92;100.00;100405.97;5113920;28;20392;-92
2023/07/17 02:21:15;;;;;;;6.72;2.75;;;;;;;10.88;100.00;100407.09;5113864;28;20031;-92
2023/07/17 02:23:40;;;;;;;6.68;2.80;;;;;;;10.86;100.00;100406.38;5112596;28;20023;-92
2023/07/17 02:26:06;;;;;;;10.43;3.17;;;;;;;10.96;100.00;100412.63;5113626;28;20038;-92
2023/07/17 02:28:32;;;;;;;8.25;3.17;;;;;;;10.90;100.00;100413.03;5113872;28;20027;-92
2023/07/17 02:30:57;;;;;;;8.07;3.20;;;;;;;10.83;100.00;100406.56;5113648;28;20034;-92
2023/07/17 02:33:23;;;;;;;7.53;3.33;;;;;;;10.86;100.00;100407.19;5112178;28;20031;-92
2023/07/17 02:35:48;;;;;;;7.10;2.78;;;;;;;10.84;100.00;100405.63;5112339;28;20020;-92
2023/07/17 02:38:14;;;;;;;5.13;2.75;;;;;;;10.82;100.00;100400.53;5112372;28;20370;-92
2023/07/17 02:40:39;;;;;;;7.47;2.60;;;;;;;10.78;100.00;100400.81;5113604;28;20019;-92
2023/07/17 02:43:06;;;;;;;7.35;2.30;;;;;;;10.80;100.00;100404.97;5112038;28;20020;-92
2023/07/17 02:45:31;;;;;;;4.75;2.40;;;;;;;10.79;100.00;100410.22;5112015;28;20019;-92
2023/07/17 02:47:57;;;;;;;8.80;2.63;;;;;;;10.78;100.00;100408.53;5113046;28;20019;-92
2023/07/17 02:50:22;;;;;;;5.20;2.53;;;;;;;10.82;100.00;100399.72;5112061;28;20024;-92
2023/07/17 02:52:48;;;;;;;4.72;2.38;;;;;;;10.83;100.00;100398.81;5111765;28;20020;-93
2023/07/17 02:55:13;;;;;;;11.82;2.17;;;;;;;10.81;100.00;100398.88;5112010;28;20027;-90
2023/07/17 02:57:38;;;;;;;5.88;2.35;;;;;;;10.70;100.00;100401.25;5113123;28;20043;-90
2023/07/17 03:00:14;;;;;;;5.40;2.60;;;;;;;10.71;100.00;100401.19;5113021;28;20480;-91
2023/07/17 03:02:42;;;;;;;9.30;2.63;;;;;;;10.60;100.00;100406.13;5111721;28;20023;-92
2023/07/17 03:05:08;;;;;;;8.02;3.00;;;;;;;10.71;100.00;100408.91;5113025;28;20106;-92
2023/07/17 03:07:36;;;;;;;7.38;2.72;;;;;;;10.67;100.00;100412.59;5113063;28;20081;-92
2023/07/17 03:10:02;;;;;;;4.70;1.80;;;;;;;10.46;100.00;100412.09;5112990;28;20030;-92
2023/07/17 03:12:27;;;;;;;10.32;2.95;;;;;;;10.58;100.00;100420.03;5111523;28;20396;-91
2023/07/17 03:14:53;;;;;;;6.78;2.55;;;;;;;10.50;100.00;100428.22;5112764;28;20023;-92
2023/07/17 03:17:18;;;;;;;7.80;2.63;;;;;;;10.42;100.00;100417.53;5112807;28;20026;-92
2023/07/17 03:19:43;;;;;;;7.30;2.80;;;;;;;10.45;100.00;100425.09;5111502;28;20046;-91
2023/07/17 03:22:09;;;;;;;5.88;2.88;;;;;;;10.46;100.00;100431.88;5112724;28;20020;-93
2023/07/17 03:24:35;;;;;;;3.72;2.10;;;;;;;10.40;100.00;100425.34;5112782;28;20103;-92
2023/07/17 03:27:00;;;;;;;5.07;2.08;;;;;;;10.45;100.00;100427.66;5112662;28;20377;-92
2023/07/17 03:29:26;;;;;;;6.97;2.15;;;;;;;10.43;100.00;100429.50;5112572;28;20095;-91
2023/07/17 03:31:52;;;;;;;8.07;2.70;;;;;;;10.53;100.00;100424.63;5112645;28;20149;-92
2023/07/17 03:34:17;;;;;;;6.78;1.95;;;;;;;10.38;100.00;100440.06;5112497;28;20068;-92
2023/07/17 03:36:42;;;;;;;7.72;2.70;;;;;;;10.36;100.00;100441.06;5111243;28;20452;-92
2023/07/17 03:39:08;;;;;;;7.15;2.95;;;;;;;10.28;100.00;100432.03;5112750;28;20077;-92
2023/07/17 03:41:33;;;;;;;6.07;2.70;;;;;;;10.29;100.00;100435.44;5112606;28;20027;-91
2023/07/17 03:44:01;;;;;;;8.45;2.88;;;;;;;10.30;100.00;100434.53;5112294;28;20024;-92
2023/07/17 03:46:27;;;;;;;5.68;2.30;;;;;;;10.25;100.00;100437.31;5112211;28;20206;-92
2023/07/17 03:48:52;;;;;;;4.82;2.10;;;;;;;10.22;100.00;100444.41;5112177;28;20254;-92
2023/07/17 03:51:18;;;;;;;7.30;2.33;;;;;;;10.14;100.00;100449.97;5112240;28;20028;-92
2023/07/17 03:53:43;;;;;;;8.35;3.08;;;;;;;10.20;100.00;100438.50;5112199;28;20023;-92
2023/07/17 03:56:08;;;;;;;4.82;2.40;;;;;;;10.26;100.00;100458.78;5112084;28;20026;-92
2023/07/17 03:58:34;;;;;;;8.98;2.67;;;;;;;10.38;100.00;100452.97;5112107;28;20028;-92
2023/07/17 04:00:59;;;;;;;7.45;3.35;;;;;;;10.31;100.00;100456.00;5113926;28;20511;-91
2023/07/17 04:03:25;;;;;;;5.75;2.42;;;;;;;10.37;100.00;100465.97;5116199;28;20047;-92
2023/07/17 04:05:50;;;;;;;6.13;2.75;;;;;;;10.50;100.00;100472.09;5116330;28;20027;-92
2023/07/17 04:08:15;;;;;;;7.32;2.55;;;;;;;10.47;100.00;100473.09;5116145;28;20035;-92
2023/07/17 04:10:41;;;;;;;11.10;2.78;;;;;;;10.43;100.00;100470.78;5116177;28;20380;-92
2023/07/17 04:13:06;;;;;;;6.50;2.50;;;;;;;10.52;100.00;100472.84;5114884;28;20226;-92
2023/07/17 04:15:35;;;;;;;9.13;3.20;;;;;;;10.55;100.00;100470.09;5114826;28;20028;-92
2023/07/17 04:18:00;;;;;;;7.50;2.65;;;;;;;10.56;100.00;100471.75;5116080;28;20020;-91
2023/07/17 04:20:26;;;;;;;9.25;3.17;;;;;;;10.63;100.00;100473.06;5115973;28;20069;-92
2023/07/17 04:22:51;;;;;;;7.55;2.92;;;;;;;10.69;100.00;100469.31;5115831;28;20031;-92
2023/07/17 04:25:16;;;;;;;6.68;2.70;;;;;;;10.76;100.00;100468.03;5114631;28;20477;-91
2023/07/17 04:27:42;;;;;;;6.93;2.95;;;;;;;10.86;100.00;100468.34;5115788;28;20023;-92
2023/07/17 04:30:08;;;;;;;7.38;2.78;;;;;;;10.96;100.00;100466.03;5114522;28;20051;-92
2023/07/17 04:32:33;;;;;;;5.60;2.47;;;;;;;11.01;100.00;100475.19;5115745;28;20027;-92
2023/07/17 04:34:59;;;;;;;14.00;2.97;;;;;;;11.19;100.00;100475.00;5115682;28;20035;-92
2023/07/17 04:37:24;;;;;;;8.25;3.17;;;;;;;11.25;100.00;100482.41;5115717;28;20030;-90
2023/07/17 04:39:50;;;;;;;9.38;2.95;;;;;;;11.29;100.00;100476.13;5115744;28;20111;-90
2023/07/17 04:42:15;;;;;;;13.25;2.97;;;;;;;11.32;100.00;100481.13;5114153;28;20030;-90
2023/07/17 04:44:43;;;;;;;6.45;2.83;;;;;;;11.30;100.00;100480.38;5115620;28;20019;-90
2023/07/17 04:47:09;;;;;;;8.20;3.38;;;;;;;11.29;100.00;100484.72;5115515;28;20028;-91
2023/07/17 04:49:34;;;;;;;9.80;2.70;;;;;;;11.30;100.00;100482.97;5114075;28;20020;-91
2023/07/17 04:51:59;;;;;;;8.82;2.83;;;;;;;11.34;100.00;100485.28;5114009;28;20019;-91
2023/07/17 04:54:25;;;;;;;8.65;2.95;;;;;;;11.42;100.00;100489.97;5113881;28;20092;-90
2023/07/17 04:56:50;;;;;;;7.30;2.63;;;;;;;11.53;100.00;100485.00;5115350;28;20488;-90
2023/07/17 04:59:16;;;;;;;6.55;2.97;;;;;;;11.62;100.00;100490.53;5115296;28;20469;-91
2023/07/17 05:01:41;;;;;;;13.30;3.08;;;;;;;11.66;100.00;100490.25;5113952;28;20036;-90
2023/07/17 05:04:07;;;;;;;6.03;2.53;;;;;;;11.66;100.00;100487.66;5113875;28;20027;-90
2023/07/17 05:06:32;;;;;;;9.23;3.08;;;;;;;11.69;100.00;100489.22;5115148;28;20027;-90
2023/07/17 05:08:57;;;;;;;9.27;3.75;;;;;;;11.65;100.00;100498.09;5115146;28;20377;-91
2023/07/17 05:11:23;;;;;;;6.53;2.88;;;;;;;11.57;100.00;100496.78;5113488;28;20473;-90
2023/07/17 05:13:48;;;;;;;7.00;2.78;;;;;;;11.55;100.00;100498.63;5115076;28;20076;-90
2023/07/17 05:16:13;;;;;;;8.43;2.63;;;;;;;11.54;100.00;100501.34;5115098;28;20035;-90
2023/07/17 05:18:39;;;;;;;6.43;2.70;;;;;;;11.49;100.00;100500.78;5115050;28;20414;-91
2023/07/17 05:21:04;;;;;;;8.57;2.88;;;;;;;11.47;100.00;100500.88;5114907;28;20020;-91
2023/07/17 05:23:30;;;;;;;10.82;2.50;;;;;;;11.54;100.00;100512.50;5114724;28;20028;-91
2023/07/17 05:25:57;;;;;;;16.67;4.40;;;;;;;11.62;100.00;100514.63;5114692;28;20030;-91
2023/07/17 05:28:24;;;;;;;8.00;2.80;;;;;;;11.75;100.00;100519.88;5114577;28;20500;-91
2023/07/17 05:30:52;;;;;;;10.32;3.65;;;;;;;11.85;100.00;100514.97;5113366;28;20020;-91
2023/07/17 05:33:18;;;;;;;10.90;2.97;;;;;;;11.85;100.00;100515.81;5114460;28;20480;-91
2023/07/17 05:35:43;;;;;;;8.02;2.85;;;;;;;11.82;100.00;100515.97;5113363;28;20031;-91
2023/07/17 05:38:09;;;;;;;11.63;3.30;;;;;;;11.82;100.00;100510.81;5114566;28;20028;-91
2023/07/17 05:40:36;;;;;;;5.25;2.50;;;;;;;11.81;100.00;100509.16;5113141;28;20023;-92
2023/07/17 05:43:03;;;;;;;9.48;3.00;;;;;;;11.78;100.00;100517.94;5113105;28;20019;-92
2023/07/17 05:45:28;;;;;;;9.27;3.13;;;;;;;11.78;100.00;100514.53;5112975;28;20034;-91
2023/07/17 05:47:54;;;;;;;7.63;2.88;;;;;;;11.78;100.00;100511.94;5114299;28;20019;-92
2023/07/17 05:50:19;;;;;;;7.78;2.92;;;;;;;11.81;100.00;100513.50;5114274;28;20121;-91
2023/07/17 05:52:44;;;;;;;11.73;2.88;;;;;;;11.90;100.00;100515.53;5112980;28;20046;-91
2023/07/17 05:55:10;;;;;;;9.07;4.20;;;;;;;11.92;100.00;100517.09;5114128;28;20031;-91
2023/07/17 05:57:35;;;;;;;7.65;3.42;;;;;;;11.94;100.00;100525.59;5112925;28;20039;-91
2023/07/17 06:00:01;;;;;;;9.73;2.50;;;;;;;12.02;100.00;100529.47;5112797;28;20074;-91
2023/07/17 06:02:26;;;;;;;11.27;3.70;;;;;;;12.07;100.00;100530.03;5113911;28;20050;-91
2023/07/17 06:04:51;;;;;;;9.43;3.53;;;;;;;12.12;100.00;100534.00;5114030;28;20028;-91
2023/07/17 06:07:17;;;;;;;7.82;2.72;;;;;;;12.24;100.00;100542.75;5112696;28;20024;-91
2023/07/17 06:09:42;;;;;;;10.43;3.03;;;;;;;12.32;100.00;100543.09;5114010;28;20468;-91
2023/07/17 06:12:08;;;;;;;9.82;2.97;;;;;;;12.44;100.00;100544.09;5112459;28;20518;-91
2023/07/17 06:14:33;;;;;;;7.13;2.63;;;;;;;12.59;100.00;100540.50;5112317;28;20027;-91
2023/07/17 06:16:58;;;;;;;4.18;2.33;;;;;;;12.75;100.00;100547.28;5112461;28;20055;-92
2023/07/17 06:19:24;;;;;;;8.85;2.63;;;;;;;14.09;100.00;100557.28;5113717;28;20023;-91
2023/07/17 06:21:49;;;;;;;7.28;2.70;;;;;;;17.59;86.63;100555.47;5112516;28;20039;-91
2023/07/17 06:24:14;;;;;;;5.97;2.10;;;;;;;19.28;75.92;100558.84;5112964;28;20024;-91
2023/07/17 06:26:41;;;;;;;6.40;2.28;;;;;;;20.21;66.70;100562.31;5113491;28;20031;-92
2023/07/17 06:29:08;;;;;;;5.85;1.52;;;;;;;19.55;68.36;100573.78;5113394;28;20392;-91
2023/07/17 06:31:33;;;;;;;4.13;1.23;;;;;;;21.51;60.26;100569.69;5113791;28;20456;-91
2023/07/17 06:33:59;;;;;;;6.57;1.35;;;;;;;21.05;59.48;100566.41;5113314;28;20034;-91
2023/07/17 06:36:24;;;;;;;4.82;1.50;;;;;;;23.20;53.65;100575.66;5112037;28;20023;-92
2023/07/17 06:38:50;;;;;;;5.25;1.42;;;;;;;23.20;52.87;100573.00;5113272;28;20118;-91
2023/07/17 06:41:16;;;;;;;6.35;1.35;;;;;;;22.48;54.22;100573.63;5113320;28;20068;-91
2023/07/17 06:43:43;;;;;;;3.70;1.48;;;;;;;20.48;59.61;100585.91;5113163;28;20031;-91
2023/07/17 06:46:09;;;;;;;3.53;1.33;;;;;;;17.82;71.65;100590.88;5112909;28;20027;-92
2023/07/17 06:48:34;;;;;;;5.47;1.10;;;;;;;17.20;75.56;100586.53;5113108;28;20034;-91
2023/07/17 06:50:59;;;;;;;7.47;0.90;;;;;;;17.18;74.81;100583.22;5112990;28;20023;-91
2023/07/17 06:53:25;;;;;;;4.10;1.30;;;;;;;17.38;75.06;100579.78;5112953;28;20073;-91
2023/07/17 06:55:57;;;;;;;4.57;1.25;;;;;;;20.50;64.01;100589.16;5113066;28;20330;-91
2023/07/17 06:58:24;;;;;;;5.95;0.80;;;;;;;21.18;59.54;100579.94;5112807;28;20028;-91
2023/07/17 07:01:00;;;;;;;4.60;1.00;;;;;;;20.96;59.16;100589.13;5112699;28;20058;-91
2023/07/17 07:03:27;;;;;;;6.72;1.13;;;;;;;19.12;65.24;100594.28;5111476;28;20020;-92
2023/07/17 07:05:57;;;;;;;4.85;1.35;;;;;;;17.64;71.61;100598.47;5112770;28;20027;-91
2023/07/17 07:08:24;;;;;;;4.53;1.75;;;;;;;17.13;73.34;100601.06;5112600;28;20024;-91
2023/07/17 07:10:51;;;;;;;2.08;1.00;;;;;;;16.95;76.42;100603.38;5112752;28;20055;-91
2023/07/17 07:13:17;;;;;;;4.35;1.08;;;;;;;16.71;77.86;100603.56;5112646;28;20519;-91
2023/07/17 07:15:42;;;;;;;4.00;1.20;;;;;;;16.55;79.56;100610.00;5112631;28;20028;-91
2023/07/17 07:18:07;;;;;;;6.32;1.17;;;;;;;16.19;80.89;100611.97;5112509;28;20028;-91
2023/07/17 07:20:33;;;;;;;3.15;1.20;;;;;;;16.11;82.67;100609.13;5111113;28;20080;-91
2023/07/17 07:22:58;;;;;;;4.63;0.95;;;;;;;16.15;84.58;100620.97;5111163;28;20037;-91
2023/07/17 07:25:23;;;;;;;4.18;1.00;;;;;;;16.10;82.87;100612.69;5111195;28;20066;-91
2023/07/17 07:27:49;;;;;;;2.42;1.02;;;;;;;16.24;81.98;100615.03;5111315;28;20159;-91
2023/07/17 07:30:14;;;;;;;4.45;1.25;;;;;;;16.04;81.31;100610.53;5112509;28;20020;-91
2023/07/17 07:32:40;;;;;;;3.22;1.20;;;;;;;16.14;80.25;100616.72;5112306;28;20102;-91
2023/07/17 07:35:06;;;;;;;8.63;1.85;;;;;;;16.24;80.66;100617.66;5111444;28;20058;-91
2023/07/17 07:37:31;;;;;;;1.88;0.88;;;;;;;16.33;80.81;100625.69;5112475;28;20051;-91
2023/07/17 07:39:57;;;;;;;5.70;0.93;;;;;;;16.52;80.93;100632.88;5110998;28;20031;-91
2023/07/17 07:42:22;;;;;;;4.68;1.55;;;;;;;16.62;79.54;100632.00;5112368;28;20549;-91
2023/07/17 07:44:48;;;;;;;4.47;1.02;;;;;;;17.26;76.61;100625.16;5112137;28;20081;-90
2023/07/17 07:47:13;;;;;;;4.47;1.20;;;;;;;17.05;77.44;100619.94;5110949;28;20023;-91
2023/07/17 07:49:39;;;;;;;4.53;1.77;;;;;;;17.01;76.72;100632.38;5113379;28;20107;-91
2023/07/17 07:52:05;;;;;;;2.80;0.93;;;;;;;17.17;75.23;100638.94;5110818;28;20043;-91
2023/07/17 07:54:30;;;;;;;2.40;0.80;;;;;;;17.75;73.19;100639.31;5112380;28;20427;-91
2023/07/17 07:56:55;;;;;;;4.38;1.00;;;;;;;18.15;70.02;100646.41;5112157;28;20090;-91
2023/07/17 07:59:21;;;;;;;4.78;1.08;;;;;;;18.94;68.73;100637.78;5112245;28;20028;-91
2023/07/17 08:01:46;;;;;;;3.88;1.00;;;;;;;19.51;67.62;100646.56;5112113;28;20485;-90
2023/07/17 08:04:11;;;;;;;3.42;1.00;;;;;;;19.65;65.31;100646.13;5111996;28;20448;-90
2023/07/17 08:06:37;;;;;;;2.47;0.93;;;;;;;19.23;65.55;100649.06;5110680;28;20046;-91
2023/07/17 08:09:02;;;;;;;4.13;1.08;;;;;;;18.92;66.80;100658.00;5111983;28;20020;-91
2023/07/17 08:11:27;;;;;;;3.95;1.08;;;;;;;18.03;69.46;100660.53;5112022;28;20027;-91
2023/07/17 08:13:53;;;;;;;4.35;1.38;;;;;;;19.03;66.53;100663.13;5112041;28;20080;-91
2023/07/17 08:16:18;;;;;;;3.13;0.68;;;;;;;19.84;64.84;100666.19;5111972;28;20512;-91
2023/07/17 08:18:44;;;;;;;6.32;0.88;;;;;;;19.17;67.19;100673.19;5111970;28;20050;-91
2023/07/17 08:21:09;;;;;;;4.03;1.08;;;;;;;19.21;66.14;100674.53;5110672;28;20028;-90
2023/07/17 08:23:35;;;;;;;3.33;1.35;;;;;;;19.52;65.20;100663.09;5111849;28;20024;-92
2023/07/17 08:26:01;;;;;;;4.97;0.95;;;;;;;20.00;64.39;100665.59;5110447;28;20039;-92
2023/07/17 08:28:26;;;;;;;2.65;1.13;;;;;;;20.29;62.85;100667.28;5111858;28;20019;-91
2023/07/17 08:30:52;;;;;;;3.33;0.93;;;;;;;19.33;64.30;100674.41;5111854;28;20031;-93
2023/07/17 08:33:18;;;;;;;3.55;0.75;;;;;;;18.74;65.37;100673.53;5111820;28;20028;-91
2023/07/17 08:35:43;;;;;;;3.63;0.70;;;;;;;18.97;66.36;100668.88;5111665;28;20030;-91
2023/07/17 08:38:09;;;;;;;5.43;1.08;;;;;;;18.82;65.68;100668.47;5111906;28;20362;-91
2023/07/17 08:40:39;;;;;;;3.67;1.50;;;;;;;19.80;64.58;100667.47;5111806;28;20027;-91
2023/07/17 08:43:06;;;;;;;2.03;1.42;;;;;;;20.01;62.63;100671.66;5111702;28;20051;-92
2023/07/17 08:45:33;;;;;;;3.13;0.90;;;;;;;19.54;63.00;100667.22;5111644;28;20039;-91
2023/07/17 08:47:59;;;;;;;2.53;0.80;;;;;;;19.21;63.38;100676.34;5113553;28;20481;-91
2023/07/17 08:50:26;;;;;;;3.45;0.55;;;;;;;18.66;65.02;100681.22;5115428;28;20027;-91
2023/07/17 08:52:54;;;;;;;2.80;0.60;;;;;;;19.42;65.50;100686.66;5115546;28;20046;-91
2023/07/17 08:55:21;;;;;;;3.72;0.80;;;;;;;20.34;63.88;100686.03;5115348;28;20473;-91
2023/07/17 08:57:50;;;;;;;5.05;0.68;;;;;;;20.28;62.53;100691.81;5114063;28;20046;-92
2023/07/17 09:00:16;;;;;;;1.75;0.60;;;;;;;21.34;58.96;100695.56;5115173;28;20015;-91
2023/07/17 09:02:42;;;;;;;3.08;0.60;;;;;;;20.50;60.24;100701.09;5115203;28;20076;-91
2023/07/17 09:05:08;;;;;;;3.53;0.70;;;;;;;20.87;58.64;100694.97;5115383;28;20024;-92
2023/07/17 09:07:33;;;;;;;2.17;0.60;;;;;;;20.81;58.76;100688.53;5115237;28;20362;-92
2023/07/17 09:10:21;;;;;;;4.32;1.60;;;;;;;20.62;59.09;100688.66;5113903;28;20048;-91
2023/07/17 09:12:58;;;;;;;3.92;0.60;;;;;;;20.38;58.93;100689.97;5115180;28;20476;-91
2023/07/17 09:15:25;;;;;;;2.25;0.30;;;;;;;19.98;60.36;100693.75;5115019;28;20030;-92
2023/07/17 09:17:50;;;;;;;4.07;0.50;;;;;;;20.00;60.46;100698.84;5114992;28;20035;-92
2023/07/17 09:20:19;;;;;;;2.45;0.47;;;;;;;21.02;58.29;100685.63;5115018;28;20016;-92
2023/07/17 09:22:45;;;;;;;2.35;0.55;;;;;;;20.39;58.66;100710.00;5114938;28;20020;-92
2023/07/17 09:25:11;;;;;;;7.03;0.80;;;;;;;20.21;58.49;100696.81;5114846;28;20106;-92
2023/07/17 09:27:49;;;;;;;4.10;0.57;;;;;;;20.66;57.25;100703.13;5114765;28;20027;-93
2023/07/17 09:30:17;;;;;;;2.00;0.40;;;;;;;21.64;56.29;100708.47;5113570;28;20019;-92
2023/07/17 09:32:43;;;;;;;2.67;0.68;;;;;;;21.61;54.61;100717.47;5113137;28;20110;-92
2023/07/17 09:35:11;;;;;;;1.10;0.20;;;;;;;22.51;53.48;100732.94;5113315;28;20039;-91
2023/07/17 09:37:38;;;;;;;2.58;0.30;;;;;;;22.85;51.30;100727.63;5114629;28;20020;-92
2023/07/17 09:40:07;;;;;;;1.42;0.28;;;;;;;22.67;52.57;100719.84;5113216;28;20016;-91
2023/07/17 09:42:33;;;;;;;2.00;0.70;;;;;;;22.36;53.77;100712.53;5114462;28;20027;-92
2023/07/17 09:44:59;;;;;;;2.25;0.40;;;;;;;22.34;53.10;100713.66;5114180;28;20020;-92
2023/07/17 09:47:26;;;;;;;2.15;0.40;;;;;;;22.86;51.73;100713.47;5114659;28;20238;-92
2023/07/17 09:49:54;;;;;;;0.82;0.30;;;;;;;23.60;51.13;100722.25;5114419;28;20024;-91
2023/07/17 09:52:19;;;;;;;2.75;0.40;;;;;;;24.24;50.47;100724.97;5114164;28;20020;-92
2023/07/17 09:54:46;;;;;;;4.03;0.47;;;;;;;23.79;51.09;100733.47;5112771;28;20080;-92
2023/07/17 09:57:28;;;;;;;6.07;0.77;;;;;;;22.35;52.50;100731.06;5114375;28;20108;-92
2023/07/17 10:00:19;;;;;;;1.48;0.30;;;;;;;23.86;50.25;100729.19;5113589;28;20055;-92
2023/07/17 10:02:55;;;;;;;;;;;;;;;24.60;48.97;100737.69;5113129;28;20413;-92
2023/07/17 10:05:21;;;;;;;4.18;0.50;;;;;;;24.24;47.72;100748.72;5113865;28;20364;-92
2023/07/17 10:07:48;;;;;;;2.33;0.30;;;;;;;24.30;47.05;100755.94;5114074;28;20026;-92
2023/07/17 10:10:14;;;;;;;2.75;0.50;;;;;;;23.16;48.23;100740.22;5112542;28;20015;-92
2023/07/17 10:12:40;;;;;;;2.47;0.45;;;;;;;23.01;49.57;100743.47;5112616;28;20030;-93
2023/07/17 10:15:08;;;;;;;1.73;0.35;;;;;;;23.32;48.34;100742.88;5112617;28;20069;-92
2023/07/17 10:17:36;;;;;;;1.77;0.30;;;;;;;23.33;47.97;100736.59;5112360;28;20543;-92
2023/07/17 10:20:03;;;;;;;3.10;0.40;;;;;;;23.41;49.84;100736.63;5113746;28;20031;-92
2023/07/17 10:22:34;;;;;;;2.13;0.40;;;;;;;22.96;49.21;100747.56;5112413;28;20508;-91
2023/07/17 10:25:17;;;;;;;1.55;0.30;;;;;;;23.87;47.16;100752.75;5113443;28;20042;-92
2023/07/17 10:27:50;;;;;;;1.48;0.40;;;;;;;24.75;47.05;100746.53;5112249;28;20043;-92
2023/07/17 10:30:35;;;;;;;4.50;0.35;;;;;;;25.32;47.57;100747.19;5112151;28;20385;-92
2023/07/17 10:33:11;;;;;;;2.90;0.57;;;;;;;24.96;45.46;100755.66;5113388;28;20019;-91
2023/07/17 10:35:55;;;;;;;5.57;0.55;;;;;;;25.02;44.74;100754.97;5111871;28;20031;-92
2023/07/17 10:38:34;;;;;;;1.95;0.35;;;;;;;25.53;45.37;100763.22;5112041;28;20024;-92
2023/07/17 10:41:14;;;;;;;3.83;0.50;;;;;;;26.04;43.00;100755.50;5113658;28;20041;-92
2023/07/17 10:43:55;;;;;;;4.10;0.50;;;;;;;26.25;42.30;100751.28;5113184;28;20493;-92
2023/07/17 10:46:28;;;;;;;;;;;;;;;25.57;43.90;100759.19;5113411;28;20034;-92
2023/07/17 10:48:54;;;;;;;5.15;0.40;;;;;;;25.31;44.03;100772.81;5111728;28;20006;-91
2023/07/17 10:51:25;;;;;;;4.25;0.60;;;;;;;24.45;46.19;100773.69;5111873;28;20019;-92
2023/07/17 10:53:54;;;;;;;4.32;0.60;;;;;;;25.59;44.92;100762.47;5113019;28;20031;-92
2023/07/17 10:56:20;;;;;;;5.95;0.88;;;;;;;24.96;45.22;100769.69;5112948;28;20040;-92
2023/07/17 10:58:49;;;;;;;4.05;0.70;;;;;;;24.90;45.15;100766.94;5112905;28;20046;-92
2023/07/17 11:01:15;;;;;;;6.03;0.50;;;;;;;23.69;46.58;100767.88;5112777;28;20554;-91
2023/07/17 11:03:47;;;;;;;5.30;1.00;;;;;;;23.31;47.19;100779.91;5111445;28;20027;-92
2023/07/17 11:06:16;;;;;;;8.30;1.05;;;;;;;24.29;47.15;100774.59;5111430;28;20031;-91
2023/07/17 11:08:49;;;;;;;4.90;0.73;;;;;;;23.75;47.13;100788.34;5112695;28;20019;-93
2023/07/17 11:11:14;;;;;;;3.28;0.55;;;;;;;24.29;45.80;100788.59;5112663;28;20094;-92
2023/07/17 11:13:43;;;;;;;10.57;0.60;;;;;;;23.97;46.64;100788.63;5111318;28;20123;-92
2023/07/17 11:16:10;;;;;;;2.15;0.50;;;;;;;25.12;44.77;100795.19;5112607;28;20022;-91